createdAt,value
2018-09-28T00:01:26.074Z,5.20
2018-09-28T00:03:55.455Z,5.57
2018-09-28T00:06:24.823Z,5.00
2018-09-28T00:08:54.945Z,5.70
2018-09-28T00:11:26.622Z,5.67
2018-09-28T00:13:55.977Z,6.37
2018-09-28T00:16:25.452Z,5.77
2018-09-28T00:18:54.802Z,6.07
2018-09-28T00:21:24.422Z,5.97
2018-09-28T00:23:53.778Z,7.00
2018-09-28T00:26:23.108Z,7.17
2018-09-28T00:28:52.430Z,6.67
2018-09-28T00:31:22.740Z,7.37
2018-09-28T00:33:52.110Z,7.03
2018-09-28T00:36:21.433Z,7.00
2018-09-28T00:38:50.748Z,6.77
2018-09-28T00:41:20.238Z,6.73
2018-09-28T00:43:49.525Z,6.83
2018-09-28T00:46:18.926Z,6.83
2018-09-28T00:48:48.314Z,6.43
2018-09-28T00:51:17.840Z,6.47
2018-09-28T00:53:47.194Z,6.33
2018-09-28T00:56:16.512Z,6.77
2018-09-28T00:58:45.831Z,6.70
2018-09-28T01:01:15.148Z,6.23
2018-09-28T01:03:44.560Z,6.37
2018-09-28T01:06:13.891Z,6.53
2018-09-28T01:08:43.184Z,6.80
2018-09-28T01:11:12.514Z,6.87
2018-09-28T01:13:41.872Z,5.83
2018-09-28T01:16:11.243Z,5.70
2018-09-28T01:18:41.740Z,5.50
2018-09-28T01:21:11.079Z,5.50
2018-09-28T01:23:40.643Z,5.63
2018-09-28T01:26:11.033Z,5.13
2018-09-28T01:28:40.473Z,5.60
2018-09-28T01:31:09.841Z,5.73
2018-09-28T01:33:39.937Z,5.27
2018-09-28T01:36:09.284Z,5.70
2018-09-28T01:38:38.619Z,5.87
2018-09-28T01:41:07.953Z,5.80
2018-09-28T01:43:37.707Z,5.60
2018-09-28T01:46:07.000Z,5.73
2018-09-28T01:48:36.335Z,6.50
2018-09-28T01:51:05.738Z,5.57
2018-09-28T01:53:35.177Z,5.17
2018-09-28T01:56:04.879Z,5.40
2018-09-28T01:58:34.182Z,5.20
2018-09-28T02:01:03.527Z,5.23
2018-09-28T02:03:32.784Z,4.73
2018-09-28T02:06:02.123Z,4.50
2018-09-28T02:08:31.429Z,5.10
2018-09-28T02:11:01.522Z,4.20
2018-09-28T02:13:31.153Z,4.60
2018-09-28T02:16:00.458Z,4.17
2018-09-28T02:18:29.780Z,4.50
2018-09-28T02:20:59.093Z,4.27
2018-09-28T02:23:28.421Z,4.20
2018-09-28T02:25:57.702Z,4.33
2018-09-28T02:28:26.976Z,4.40
2018-09-28T02:30:56.284Z,4.60
2018-09-28T02:33:26.497Z,4.00
2018-09-28T02:35:55.854Z,4.20
2018-09-28T02:38:25.344Z,4.87
2018-09-28T02:40:54.670Z,4.17
2018-09-28T02:43:24.633Z,4.23
2018-09-28T02:45:53.958Z,4.37
2018-09-28T02:48:23.642Z,4.00
2018-09-28T02:50:52.917Z,4.60
2018-09-28T02:53:22.280Z,4.27
2018-09-28T02:55:51.561Z,4.50
2018-09-28T02:58:20.842Z,4.67
2018-09-28T03:00:50.160Z,4.57
2018-09-28T03:03:19.458Z,4.70
2018-09-28T03:05:48.784Z,4.97
2018-09-28T03:08:18.085Z,4.57
2018-09-28T03:10:47.404Z,4.23
2018-09-28T03:13:16.696Z,4.50
2018-09-28T03:15:45.980Z,4.83
2018-09-28T03:18:15.257Z,4.60
2018-09-28T03:20:44.565Z,4.90
2018-09-28T03:23:13.906Z,5.13
2018-09-28T03:25:43.224Z,5.50
2018-09-28T03:28:12.505Z,5.03
2018-09-28T03:30:42.256Z,5.63
2018-09-28T03:33:11.577Z,5.20
2018-09-28T03:35:40.878Z,4.90
2018-09-28T03:38:10.183Z,5.63
2018-09-28T03:40:39.527Z,5.27
2018-09-28T03:43:08.875Z,7.80
2018-09-28T03:45:38.658Z,10.93
2018-09-28T03:48:08.101Z,11.00
2018-09-28T03:50:37.519Z,10.07
2018-09-28T03:53:07.392Z,12.10
2018-09-28T03:55:36.889Z,10.30
2018-09-28T03:58:06.312Z,13.13
2018-09-28T04:00:35.678Z,9.23
2018-09-28T04:03:05.062Z,9.80
2018-09-28T04:05:35.945Z,13.83
2018-09-28T04:08:06.072Z,18.70
2018-09-28T04:10:35.456Z,19.90
2018-09-28T04:13:04.801Z,15.83
2018-09-28T04:15:34.243Z,19.70
2018-09-28T04:18:07.348Z,25.07
2018-09-28T04:20:36.844Z,21.43
2018-09-28T04:23:06.758Z,14.33
2018-09-28T04:25:36.017Z,19.30
2018-09-28T04:28:05.476Z,18.40
2018-09-28T04:30:35.066Z,13.03
2018-09-28T04:33:04.413Z,11.10
2018-09-28T04:35:33.737Z,18.57
2018-09-28T04:38:03.919Z,17.23
2018-09-28T04:40:33.275Z,18.67
2018-09-28T04:43:02.631Z,31.00
2018-09-28T04:45:32.208Z,26.00
2018-09-28T04:48:10.418Z,29.60
2018-09-28T04:50:40.526Z,36.37
2018-09-28T04:53:09.898Z,24.23
2018-09-28T04:55:39.808Z,27.17
2018-09-28T04:58:09.589Z,28.63
2018-09-28T05:00:39.254Z,23.40
2018-09-28T05:03:08.859Z,49.10
2018-09-28T05:05:38.700Z,18.53
2018-09-28T05:08:08.405Z,21.50
2018-09-28T05:10:37.800Z,27.60
2018-09-28T05:13:07.208Z,20.53
2018-09-28T05:15:36.467Z,14.47
2018-09-28T05:18:05.883Z,15.20
2018-09-28T05:20:35.235Z,14.53
2018-09-28T05:23:05.323Z,13.07
2018-09-28T05:25:35.308Z,9.90
2018-09-28T05:28:04.732Z,10.60
2018-09-28T05:30:34.317Z,9.53
2018-09-28T05:33:03.748Z,10.00
2018-09-28T05:35:32.944Z,17.57
2018-09-28T05:38:03.726Z,13.00
2018-09-28T05:40:33.262Z,8.93
2018-09-28T05:43:02.577Z,9.27
2018-09-28T05:45:32.242Z,9.60
2018-09-28T05:48:01.543Z,10.60
2018-09-28T05:50:30.883Z,9.53
2018-09-28T05:53:00.484Z,10.73
2018-09-28T05:55:30.327Z,13.13
2018-09-28T05:58:04.782Z,12.90
2018-09-28T06:00:39.859Z,12.50
2018-09-28T06:03:12.773Z,11.10
2018-09-28T06:05:43.341Z,8.13
2018-09-28T06:08:13.333Z,8.13
2018-09-28T06:10:42.637Z,9.00
2018-09-28T06:13:12.360Z,8.40
2018-09-28T06:15:42.765Z,8.80
2018-09-28T06:18:12.079Z,9.73
2018-09-28T06:20:41.666Z,8.67
2018-09-28T06:23:10.967Z,8.90
2018-09-28T06:25:40.286Z,8.47
2018-09-28T06:28:09.564Z,8.97
2018-09-28T06:30:40.060Z,9.10
2018-09-28T06:33:10.030Z,9.70
2018-09-28T06:35:39.404Z,9.73
2018-09-28T06:38:08.884Z,9.80
2018-09-28T06:40:38.451Z,8.43
2018-09-28T06:43:08.196Z,8.73
2018-09-28T06:45:37.769Z,9.27
2018-09-28T06:48:07.784Z,8.93
2018-09-28T06:50:37.120Z,9.00
2018-09-28T06:53:06.820Z,9.70
2018-09-28T06:55:36.115Z,8.70
2018-09-28T06:58:05.447Z,8.73
2018-09-28T07:00:34.776Z,9.07
2018-09-28T07:03:04.152Z,8.00
2018-09-28T07:05:33.894Z,8.00
2018-09-28T07:08:04.344Z,8.07
2018-09-28T07:10:34.050Z,7.67
2018-09-28T07:13:03.593Z,6.90
2018-09-28T07:15:33.914Z,8.13
2018-09-28T07:18:03.319Z,7.30
2018-09-28T07:20:33.303Z,7.73
2018-09-28T07:23:03.609Z,7.23
2018-09-28T07:25:34.146Z,7.87
2018-09-28T07:28:03.767Z,7.07
2018-09-28T07:30:33.714Z,6.80
2018-09-28T07:33:02.979Z,6.50
2018-09-28T07:35:32.583Z,6.43
2018-09-28T07:38:03.047Z,6.53
2018-09-28T07:40:33.241Z,6.10
2018-09-28T07:43:02.588Z,6.03
2018-09-28T07:45:32.091Z,4.90
2018-09-28T07:48:01.420Z,5.03
2018-09-28T07:50:30.824Z,2.60
2018-09-28T07:53:00.306Z,2.23
2018-09-28T07:55:29.610Z,1.80
2018-09-28T07:57:58.954Z,1.40
2018-09-28T08:00:28.267Z,1.80
2018-09-28T08:02:57.611Z,1.77
2018-09-28T08:05:26.995Z,1.53
2018-09-28T08:07:56.437Z,1.43
2018-09-28T08:10:25.848Z,1.90
2018-09-28T08:12:55.167Z,1.60
2018-09-28T08:15:24.425Z,1.70
2018-09-28T08:17:53.791Z,1.90
2018-09-28T08:20:23.123Z,1.87
2018-09-28T08:22:52.477Z,2.07
2018-09-28T08:25:22.331Z,1.70
2018-09-28T08:27:51.669Z,1.53
2018-09-28T08:30:21.019Z,1.83
2018-09-28T08:32:50.342Z,1.73
2018-09-28T08:35:19.644Z,1.70
2018-09-28T08:37:48.912Z,1.80
2018-09-28T08:40:18.212Z,1.90
2018-09-28T08:42:47.509Z,1.90
2018-09-28T08:45:16.821Z,1.73
2018-09-28T08:47:46.155Z,1.80
2018-09-28T08:50:15.801Z,1.53
2018-09-28T08:52:45.122Z,1.83
2018-09-28T08:55:14.519Z,1.80
2018-09-28T08:57:44.085Z,1.77
2018-09-28T09:00:13.472Z,2.07
2018-09-28T09:02:42.861Z,1.90
2018-09-28T09:05:12.176Z,1.83
2018-09-28T09:07:41.868Z,1.90
2018-09-28T09:10:11.418Z,2.67
2018-09-28T09:12:43.013Z,2.60
2018-09-28T09:15:12.338Z,1.93
2018-09-28T09:17:41.908Z,2.07
2018-09-28T09:20:11.212Z,2.30
2018-09-28T09:22:41.233Z,2.40
2018-09-28T09:25:10.643Z,1.90
2018-09-28T09:27:41.574Z,2.30
2018-09-28T09:30:10.938Z,1.90
2018-09-28T09:32:41.017Z,2.03
2018-09-28T09:35:10.386Z,2.70
2018-09-28T09:37:40.653Z,2.13
2018-09-28T09:40:09.993Z,1.97
2018-09-28T09:42:40.286Z,2.20
2018-09-28T09:45:09.571Z,1.97
2018-09-28T09:47:39.626Z,2.17
2018-09-28T09:50:09.300Z,2.60
2018-09-28T09:52:40.240Z,2.13
2018-09-28T09:55:09.598Z,2.30
2018-09-28T09:57:40.007Z,2.50
2018-09-28T10:00:09.417Z,2.63
2018-09-28T10:02:44.163Z,2.00
2018-09-28T10:05:13.537Z,2.47
2018-09-28T10:07:43.632Z,2.13
2018-09-28T10:10:12.924Z,2.80
2018-09-28T10:12:43.447Z,2.30
2018-09-28T10:15:12.756Z,2.33
2018-09-28T10:17:43.048Z,2.47
2018-09-28T10:20:12.382Z,2.43
2018-09-28T10:22:42.565Z,2.60
2018-09-28T10:25:11.916Z,3.00
2018-09-28T10:27:42.724Z,2.77
2018-09-28T10:30:12.040Z,2.80
2018-09-28T10:32:41.981Z,2.03
2018-09-28T10:35:11.303Z,2.47
2018-09-28T10:37:40.932Z,2.23
2018-09-28T10:40:10.249Z,2.50
2018-09-28T10:42:40.949Z,1.77
2018-09-28T10:45:10.304Z,1.97
2018-09-28T10:47:39.767Z,1.90
2018-09-28T10:50:09.270Z,2.27
2018-09-28T10:52:38.777Z,2.60
2018-09-28T10:55:08.021Z,2.33
2018-09-28T10:57:37.349Z,2.70
2018-09-28T11:00:06.671Z,2.70
2018-09-28T11:02:36.253Z,2.20
2018-09-28T11:05:06.056Z,2.43
2018-09-28T11:07:35.342Z,2.37
2018-09-28T11:10:04.882Z,2.67
2018-09-28T11:12:34.232Z,2.50
2018-09-28T11:15:03.629Z,2.50
2018-09-28T11:17:32.944Z,2.60
2018-09-28T11:20:02.700Z,2.33
2018-09-28T11:22:32.040Z,2.40
2018-09-28T11:25:01.388Z,2.23
2018-09-28T11:27:30.758Z,2.47
2018-09-28T11:30:00.063Z,2.20
2018-09-28T11:32:29.719Z,2.83
2018-09-28T11:34:59.071Z,2.00
2018-09-28T11:37:29.676Z,2.17
2018-09-28T11:39:59.118Z,2.03
2018-09-28T11:42:28.781Z,2.60
2018-09-28T11:44:59.793Z,1.60
2018-09-28T11:47:29.205Z,2.20
2018-09-28T11:49:58.504Z,2.30
2018-09-28T11:52:28.068Z,1.93
2018-09-28T11:54:57.736Z,2.30
2018-09-28T11:57:27.105Z,2.30
2018-09-28T11:59:56.634Z,2.57
2018-09-28T12:02:26.285Z,2.73
2018-09-28T12:04:55.710Z,2.33
2018-09-28T12:07:25.292Z,2.17
2018-09-28T12:09:54.554Z,1.83
2018-09-28T12:12:23.957Z,2.10
2018-09-28T12:14:53.196Z,2.20
2018-09-28T12:17:22.527Z,2.33
2018-09-28T12:19:51.782Z,2.83
2018-09-28T12:22:21.130Z,2.67
2018-09-28T12:24:50.644Z,2.30
2018-09-28T12:27:19.996Z,2.07
2018-09-28T12:29:50.255Z,2.53
2018-09-28T12:32:19.602Z,2.60
2018-09-28T12:34:50.016Z,1.80
2018-09-28T12:37:19.330Z,1.93
2018-09-28T12:39:49.635Z,2.07
2018-09-28T12:42:18.841Z,2.20
2018-09-28T12:44:48.748Z,2.40
2018-09-28T12:47:18.036Z,2.20
2018-09-28T12:49:47.499Z,1.80
2018-09-28T12:52:17.142Z,2.20
2018-09-28T12:54:46.972Z,1.67
2018-09-28T12:57:16.592Z,2.07
2018-09-28T12:59:45.909Z,1.70
2018-09-28T13:02:15.283Z,2.03
2018-09-28T13:04:45.097Z,1.90
2018-09-28T13:07:14.482Z,1.90
2018-09-28T13:09:43.979Z,1.70
2018-09-28T13:12:13.383Z,1.80
2018-09-28T13:14:43.815Z,2.03
2018-09-28T13:17:13.365Z,2.07
2018-09-28T13:19:42.758Z,2.07
2018-09-28T13:22:12.111Z,1.87
2018-09-28T13:24:42.552Z,2.27
2018-09-28T13:27:11.880Z,1.80
2018-09-28T13:29:41.176Z,1.77
2018-09-28T13:32:10.721Z,1.80
2018-09-28T13:34:40.026Z,2.07
2018-09-28T13:37:09.362Z,1.93
2018-09-28T13:39:39.487Z,2.30
2018-09-28T13:42:08.877Z,2.87
2018-09-28T13:44:38.956Z,4.40
2018-09-28T13:47:08.895Z,4.47
2018-09-28T13:49:38.241Z,4.33
2018-09-28T13:52:08.429Z,2.47
2018-09-28T13:54:49.449Z,2.60
2018-09-28T13:57:24.813Z,2.13
2018-09-28T13:59:55.205Z,2.17
2018-09-28T14:02:24.641Z,1.80
2018-09-28T14:04:54.569Z,2.20
2018-09-28T14:07:23.953Z,2.03
2018-09-28T14:09:54.239Z,1.80
2018-09-28T14:12:23.948Z,2.43
2018-09-28T14:14:54.310Z,2.10
2018-09-28T14:17:24.068Z,2.67
2018-09-28T14:19:54.743Z,1.97
2018-09-28T14:22:24.545Z,1.87
2018-09-28T14:24:55.035Z,1.90
2018-09-28T14:27:24.781Z,2.47
2018-09-28T14:29:55.261Z,2.17
2018-09-28T14:32:24.965Z,2.00
2018-09-28T14:34:55.567Z,1.90
2018-09-28T14:37:25.252Z,2.07
2018-09-28T14:39:55.932Z,1.87
2018-09-28T14:42:25.707Z,1.83
2018-09-28T14:44:56.048Z,1.90
2018-09-28T14:47:25.754Z,2.20
2018-09-28T14:49:56.416Z,1.97
2018-09-28T14:52:26.175Z,2.00
2018-09-28T14:54:57.009Z,1.80
2018-09-28T14:57:26.597Z,2.33
2018-09-28T14:59:57.406Z,1.90
2018-09-28T15:02:27.125Z,1.70
2018-09-28T15:04:57.645Z,1.70
2018-09-28T15:07:27.349Z,2.27
2018-09-28T15:09:58.140Z,1.70
2018-09-28T15:12:27.835Z,2.13
2018-09-28T15:14:58.155Z,2.00
2018-09-28T15:17:27.924Z,1.77
2018-09-28T15:19:58.578Z,1.67
2018-09-28T15:22:28.307Z,1.97
2018-09-28T15:24:58.917Z,1.73
2018-09-28T15:27:28.672Z,1.63
2018-09-28T15:29:59.015Z,1.40
2018-09-28T15:32:28.689Z,1.30
2018-09-28T15:35:05.548Z,1.70
2018-09-28T15:37:35.201Z,1.80
2018-09-28T15:40:05.384Z,1.83
2018-09-28T15:42:35.146Z,1.30
2018-09-28T15:45:04.527Z,1.93
2018-09-28T15:47:33.865Z,2.27
2018-09-28T15:50:03.660Z,1.63
2018-09-28T15:52:32.975Z,1.90
2018-09-28T15:55:02.372Z,1.73
2018-09-28T15:57:31.708Z,2.00
2018-09-28T16:00:01.385Z,1.90
2018-09-28T16:02:30.722Z,1.77
2018-09-28T16:05:00.975Z,2.00
2018-09-28T16:07:31.214Z,1.73
2018-09-28T16:10:01.295Z,1.90
2018-09-28T16:12:30.620Z,2.20
2018-09-28T16:15:00.883Z,2.30
2018-09-28T16:17:30.234Z,2.07
2018-09-28T16:20:00.280Z,1.80
2018-09-28T16:22:29.680Z,2.00
2018-09-28T16:24:59.950Z,2.03
2018-09-28T16:27:29.389Z,1.90
2018-09-28T16:29:59.157Z,2.00
2018-09-28T16:32:28.593Z,1.83
2018-09-28T16:34:57.920Z,1.83
2018-09-28T16:37:27.327Z,1.63
2018-09-28T16:39:57.676Z,1.90
2018-09-28T16:42:27.054Z,1.33
2018-09-28T16:44:56.393Z,1.70
2018-09-28T16:47:25.722Z,1.70
2018-09-28T16:49:55.364Z,1.63
2018-09-28T16:52:30.194Z,1.33
2018-09-28T16:54:59.683Z,1.57
2018-09-28T16:57:30.025Z,1.67
2018-09-28T16:59:59.446Z,1.30
2018-09-28T17:02:28.887Z,1.57
2018-09-28T17:04:58.183Z,1.10
2018-09-28T17:07:27.517Z,1.50
2018-09-28T17:09:56.945Z,1.50
2018-09-28T17:12:26.275Z,2.17
2018-09-28T17:14:55.613Z,1.87
2018-09-28T17:17:25.349Z,2.23
2018-09-28T17:19:54.646Z,1.57
2018-09-28T17:22:24.070Z,2.60
2018-09-28T17:24:53.473Z,2.77
2018-09-28T17:27:22.797Z,2.33
2018-09-28T17:29:52.246Z,2.00
2018-09-28T17:32:21.604Z,2.10
2018-09-28T17:34:50.930Z,2.10
2018-09-28T17:37:20.307Z,2.40
2018-09-28T17:39:49.659Z,2.67
2018-09-28T17:42:19.018Z,2.37
2018-09-28T17:44:48.433Z,2.50
2018-09-28T17:47:17.762Z,1.70
2018-09-28T17:49:47.172Z,2.50
2018-09-28T17:52:16.586Z,2.00
2018-09-28T17:54:46.024Z,2.13
2018-09-28T17:57:16.187Z,2.13
2018-09-28T17:59:45.760Z,2.10
2018-09-28T18:02:14.963Z,2.30
2018-09-28T18:04:44.307Z,2.30
2018-09-28T18:07:13.702Z,2.83
2018-09-28T18:09:43.419Z,3.17
2018-09-28T18:12:13.197Z,3.23
2018-09-28T18:14:42.699Z,3.50
2018-09-28T18:17:12.472Z,3.10
2018-09-28T18:19:41.846Z,3.20
2018-09-28T18:22:11.745Z,2.43
2018-09-28T18:24:42.491Z,2.83
2018-09-28T18:27:12.240Z,3.80
2018-09-28T18:29:41.851Z,2.80
2018-09-28T18:32:11.390Z,2.50
2018-09-28T18:34:40.746Z,2.40
2018-09-28T18:37:10.239Z,1.87
2018-09-28T18:39:40.482Z,2.03
2018-09-28T18:42:09.809Z,2.40
2018-09-28T18:44:39.163Z,2.20
2018-09-28T18:47:08.710Z,2.60
2018-09-28T18:49:38.141Z,2.47
2018-09-28T18:52:07.528Z,2.90
2018-09-28T18:54:36.829Z,2.90
2018-09-28T18:57:06.263Z,2.63
2018-09-28T18:59:35.608Z,3.60
2018-09-28T19:02:05.627Z,2.83
2018-09-28T19:04:34.994Z,2.77
2018-09-28T19:07:04.420Z,2.90
2018-09-28T19:09:33.713Z,2.80
2018-09-28T19:12:03.042Z,2.97
2018-09-28T19:14:32.376Z,2.73
2018-09-28T19:17:01.720Z,2.77
2018-09-28T19:19:31.154Z,2.50
2018-09-28T19:22:00.561Z,2.90
2018-09-28T19:24:29.968Z,2.17
2018-09-28T19:26:59.394Z,2.33
2018-09-28T19:29:28.782Z,2.27
2018-09-28T19:31:58.136Z,2.70
2018-09-28T19:34:27.931Z,2.60
2018-09-28T19:36:58.164Z,2.47
2018-09-28T19:39:27.482Z,2.23
2018-09-28T19:41:56.846Z,2.60
2018-09-28T19:44:26.286Z,2.80
2018-09-28T19:46:55.670Z,2.10
2018-09-28T19:49:25.063Z,2.40
2018-09-28T19:51:54.419Z,1.80
2018-09-28T19:54:23.762Z,2.03
2018-09-28T19:56:53.125Z,2.10
2018-09-28T19:59:22.507Z,2.10
2018-09-28T20:01:51.821Z,2.03
2018-09-28T20:04:21.310Z,1.87
2018-09-28T20:06:50.623Z,2.17
2018-09-28T20:09:20.634Z,1.73
2018-09-28T20:11:50.171Z,2.50
2018-09-28T20:14:19.991Z,1.83
2018-09-28T20:16:49.395Z,2.67
2018-09-28T20:19:19.518Z,1.80
2018-09-28T20:21:48.820Z,2.00
2018-09-28T20:24:24.100Z,1.80
2018-09-28T20:26:53.511Z,2.03
2018-09-28T20:29:27.059Z,1.57
2018-09-28T20:31:56.654Z,2.23
2018-09-28T20:34:27.410Z,2.10
2018-09-28T20:36:56.831Z,2.57
2018-09-28T20:39:26.491Z,2.33
2018-09-28T20:41:55.909Z,2.20
2018-09-28T20:44:25.220Z,1.97
2018-09-28T20:46:54.526Z,2.10
2018-09-28T20:49:23.829Z,1.80
2018-09-28T20:51:54.236Z,2.20
2018-09-28T20:54:23.552Z,1.80
2018-09-28T20:56:53.184Z,1.80
2018-09-28T20:59:22.746Z,1.77
2018-09-28T21:01:52.120Z,1.57
2018-09-28T21:04:22.733Z,1.67
2018-09-28T21:06:52.194Z,1.80
2018-09-28T21:09:21.979Z,2.33
2018-09-28T21:11:51.429Z,1.83
2018-09-28T21:14:21.519Z,1.90
2018-09-28T21:16:50.816Z,2.07
2018-09-28T21:19:20.843Z,2.00
2018-09-28T21:21:50.158Z,2.10
2018-09-28T21:24:20.078Z,1.90
2018-09-28T21:26:49.686Z,2.20
2018-09-28T21:29:19.281Z,2.00
2018-09-28T21:31:48.579Z,2.30
2018-09-28T21:34:17.872Z,2.43
2018-09-28T21:36:47.645Z,2.00
2018-09-28T21:39:16.935Z,2.20
2018-09-28T21:41:46.383Z,2.17
2018-09-28T21:44:15.768Z,2.03
2018-09-28T21:46:45.080Z,2.40
2018-09-28T21:49:14.369Z,2.37
2018-09-28T21:51:44.295Z,2.23
2018-09-28T21:54:13.739Z,2.13
2018-09-28T21:56:43.041Z,2.20
2018-09-28T21:59:12.362Z,1.80
2018-09-28T22:01:41.690Z,2.27
2018-09-28T22:04:11.048Z,2.30
2018-09-28T22:06:41.971Z,2.17
2018-09-28T22:09:11.377Z,2.00
2018-09-28T22:11:41.414Z,1.70
2018-09-28T22:14:10.835Z,1.90
2018-09-28T22:16:40.202Z,2.00
2018-09-28T22:19:09.583Z,1.73
2018-09-28T22:21:39.749Z,1.93
2018-09-28T22:24:09.279Z,2.07
2018-09-28T22:26:38.752Z,2.30
2018-09-28T22:29:08.531Z,2.10
2018-09-28T22:31:37.860Z,2.10
2018-09-28T22:34:07.342Z,2.00
2018-09-28T22:36:37.186Z,1.87
2018-09-28T22:39:08.780Z,1.80
2018-09-28T22:41:38.145Z,2.17
2018-09-28T22:44:08.263Z,2.17
2018-09-28T22:46:38.339Z,1.97
2018-09-28T22:49:07.750Z,1.97
2018-09-28T22:51:37.178Z,1.93
2018-09-28T22:54:06.735Z,1.77
2018-09-28T22:56:36.063Z,2.40
2018-09-28T22:59:06.574Z,2.03
2018-09-28T23:01:38.363Z,2.00
2018-09-28T23:04:08.466Z,1.83
2018-09-28T23:06:38.674Z,2.37
2018-09-28T23:09:09.418Z,1.73
2018-09-28T23:11:39.176Z,1.60
2018-09-28T23:14:09.059Z,2.37
2018-09-28T23:16:38.540Z,1.97
2018-09-28T23:19:07.818Z,1.97
2018-09-28T23:21:37.354Z,1.90
2018-09-28T23:24:06.880Z,1.70
2018-09-28T23:26:36.241Z,2.07
2018-09-28T23:29:06.863Z,1.70
2018-09-28T23:31:36.206Z,2.30
2018-09-28T23:34:05.644Z,2.43
2018-09-28T23:36:35.025Z,2.10
2018-09-28T23:39:05.948Z,1.73
2018-09-28T23:41:35.367Z,1.90
2018-09-28T23:44:05.788Z,2.17
2018-09-28T23:46:35.120Z,1.50
2018-09-28T23:49:04.785Z,1.60
2018-09-28T23:51:34.195Z,1.80
2018-09-28T23:54:03.578Z,1.77
2018-09-28T23:56:32.943Z,1.77
2018-09-28T23:59:02.381Z,1.90
